首页
METAR-TAF:

METAR-TAF

机场 :

布良斯克, 俄罗斯

纬度: 53-15N, 经度: 034-19E, 海拔: 217米

当前天气观测

该预报发布于4小时和39分钟前的15:00 UTC
风速10节,风向北转东北,有时为19节阵风
温度 10°C
湿度 87%
气压 1007 hPa
能見度: 9000
多云层高于900英尺
多云层高于1400英尺
小雨

METAR: UUBP 011500Z 02005G10MPS 9000 -RA BKN009 BKN014 10/08 Q1007 R34/290250 NOSIG RMK QFE738/0984

时间: 22:39 (19:39 UTC)

预报

该预报发布于5小时和41分钟前的13:58 UTC
预报有效从01日的 15点(UTC)到 01日的 24点(UTC)
风速10节,风向北转东北
能見度: 8000
多云层高于1500英尺
小雨
短暂存在
从 01日的 15点(UTC)到 01日的 24点(UTC)
能見度: 3100
多云层高于1100英尺, 积雨云.
小阵雨, 轻雾

TAF: UUBP 011358Z 0115/0124 02005MPS 8000 -RA BKN015 TEMPO 0115/0124 3100 -SHRA BR BKN011CB

超过4000个机场的气象观测和天气预报(METAR&TAF报告)。

可查询的气象台以黄色和红色小点在地图上表示。

将鼠标移到小点上方,可查看气象台名称。

然后点击查看天气观测和预报。

如需切换地图:点击带黑十字的绿色按钮放大地图;点击带横线的绿色按钮缩小地图;或者点击绿色箭头查看邻近地区的地图。


METAR-TAF: